CheckWX is a tool to help pilots better visualize weather data.  It is not intended as a substitute for an official pre-flight weather briefing.

01:19:36 UTC

KBRY METAR
Samuels Field
Bardstown, Kentucky, USA
Current

1 hour ago

KBRY 150015Z AUTO 00000KT 10SM CLR 28/17 A3004 RMK AO1
Observed
Jul-15 @ 00:15 UTC
Visibility
10 SM
Flight Rules
VFR
Cloud Levels
  • Clear skies
Temperature
28°C / 82°F
Dewpoint
17°C / 63°F
Humidity
51%
Altimeter
30.04" Hg
Pressure
1017.32 hPa
Previous

1 hour ago

KBRY 142355Z AUTO 00000KT 10SM CLR 28/17 A3004 RMK AO1
Observed
Jul-14 @ 23:55 UTC
Visibility
10 SM
Flight Rules
VFR
Cloud Levels
  • Clear skies
Temperature
28°C / 82°F
Dewpoint
17°C / 63°F
Humidity
51%
Altimeter
30.04" Hg
Pressure
1017.32 hPa
Previous

2 hours ago

KBRY 142335Z AUTO 00000KT 10SM CLR 29/16 A3004 RMK AO1
Observed
Jul-14 @ 23:35 UTC
Visibility
10 SM
Flight Rules
VFR
Cloud Levels
  • Clear skies
Temperature
29°C / 84°F
Dewpoint
16°C / 61°F
Humidity
45%
Altimeter
30.04" Hg
Pressure
1017.32 hPa